Roi Et Airport
VTUV : now visible

Airfield :











YOU CAN JOIN US ON...

 
LOGIN :

Register | Disclaimer

   EN    FR    IT 

 









Legend :    VFR   Marginal VFR   IFR   Intensive IFR   Very Intensive IFR
Visi :
Ceiling :
>= 8 km
>= 3000ft
5 to 8 km
1000 to 3000 ft
1500m to 5 km
500 to 1000 ft
800 to 1500m
200 to 500 ft
< 800m
< 200 ft
Symbols :   Thunderstorms  Fog  Heavy snow  Heavy precipitations  Wind > 20 kt






- Airport Elevation : 451 ft
- IATA code : ROI


VTUV - Roi Et

CURRENT METAR :
  • 271100Z 29002KT 7000 FEW030 28/25 Q1004 NOSIG

EXPIRED METARs :
  • 271000Z 28003KT 8000 FEW030 29/25 Q1004 NOSIG
  • 270900Z 30004KT 270V330 9000 FEW025 29/25 Q1003 NOSIG

TAF TAF VTUV
Valid from the 27 at 12:00 until the 28 at 12:00 UTC


271100Z 2712/2812 30005KT 9999 SCT025
TEMPO 2714/2724 VRB15KT 3000 TSRA FEW018CB OVC025
TEMPO 2800/2812 VRB15KT 4000 RA FEW020 OVC025
VTBB FIR / Asia



MET'MAP, your aeronautical weather chart ! - Copyright ORBIFLY December 2007 - Disclaimer

ORBIFLY MET'MAP TEAM :

Programming & Development : Alexandra Zaïnal
Original concept : Baudouin d'Aumeries
Technical & hardware support : Manuel Goepfert
Assistance : Marc-Olivier Méhu




SOURCES & CREDITS :

   NOAA       Earth
Advisory